Time;durP1;ratioP1;P1;durP2;ratioP2;P2;SDS_P1;SDS_P2;PMS_P1;PMS_P2;Temp;Humidity;BMP_temperature;BMP_pressure;BME280_temperature;BME280_humidity;BME280_pressure;Samples;Min_cycle;Max_cycle;Signal;HPM_P1;HPM_P2
2023/04/21 00:02:02;;;;;;;4.88;2.70;;;19.60;51.30;;;;;;5113712;28;20035;-69
2023/04/21 00:04:27;;;;;;;4.18;2.60;;;19.60;51.30;;;;;;5112486;28;20051;-69
2023/04/21 00:06:53;;;;;;;3.75;2.08;;;19.60;51.30;;;;;;5113080;28;20048;-70
2023/04/21 00:09:20;;;;;;;3.47;2.10;;;19.60;51.30;;;;;;5113542;28;20093;-70
2023/04/21 00:11:45;;;;;;;3.83;2.30;;;19.60;51.30;;;;;;5114053;28;20483;-70
2023/04/21 00:14:11;;;;;;;6.40;2.60;;;19.60;51.30;;;;;;5112382;28;20071;-70
2023/04/21 00:16:36;;;;;;;5.38;2.45;;;19.60;51.30;;;;;;5114024;28;20036;-70
2023/04/21 00:19:05;;;;;;;4.55;2.63;;;19.60;51.30;;;;;;5111614;28;20451;-70
2023/04/21 00:21:32;;;;;;;4.00;2.60;;;19.60;51.30;;;;;;5113032;28;20039;-70
2023/04/21 00:23:57;;;;;;;3.63;2.50;;;19.60;51.30;;;;;;5113075;28;20086;-70
2023/04/21 00:26:23;;;;;;;4.25;2.65;;;19.60;51.30;;;;;;5111996;28;20067;-70
2023/04/21 00:28:49;;;;;;;4.82;2.55;;;19.50;51.30;;;;;;5112299;28;20040;-70
2023/04/21 00:31:14;;;;;;;5.32;2.67;;;19.50;51.20;;;;;;5113431;28;20043;-70
2023/04/21 00:33:40;;;;;;;5.95;2.95;;;19.50;51.20;;;;;;5112791;28;20047;-70
2023/04/21 00:36:05;;;;;;;4.07;2.53;;;19.50;51.20;;;;;;5112985;28;20035;-70
2023/04/21 00:38:31;;;;;;;4.35;2.58;;;19.50;51.20;;;;;;5112047;28;20426;-70
2023/04/21 00:40:57;;;;;;;4.30;2.50;;;19.50;51.20;;;;;;5112091;28;20078;-70
2023/04/21 00:43:24;;;;;;;4.47;2.85;;;19.50;51.20;;;;;;5113298;28;20410;-70
2023/04/21 00:45:50;;;;;;;4.70;2.90;;;19.50;51.30;;;;;;5113422;28;20640;-70
2023/04/21 00:48:15;;;;;;;3.80;2.55;;;19.50;51.20;;;;;;5111989;28;20130;-70
2023/04/21 00:50:42;;;;;;;3.42;2.38;;;19.50;51.20;;;;;;5112976;28;20039;-70
2023/04/21 00:53:07;;;;;;;5.20;2.65;;;19.50;51.20;;;;;;5111547;28;20039;-70
2023/04/21 00:55:33;;;;;;;4.40;2.80;;;19.50;51.20;;;;;;5110778;28;20040;-70
2023/04/21 00:57:59;;;;;;;4.95;2.97;;;19.50;51.20;;;;;;5112753;28;20051;-70
2023/04/21 01:00:24;;;;;;;4.80;2.97;;;19.40;51.20;;;;;;5084756;28;20480;-70
2023/04/21 01:02:50;;;;;;;5.72;3.17;;;19.40;51.20;;;;;;5112118;28;20039;-70
2023/04/21 01:05:16;;;;;;;4.68;2.67;;;19.40;51.10;;;;;;5099960;28;20119;-70
2023/04/21 01:07:42;;;;;;;4.20;2.45;;;19.40;51.20;;;;;;5092686;28;20049;-70
2023/04/21 01:10:08;;;;;;;6.15;2.60;;;19.40;51.10;;;;;;5073365;28;20133;-70
2023/04/21 01:12:41;;;;;;;4.72;2.70;;;19.40;51.20;;;;;;5091113;28;20131;-70
2023/04/21 01:15:07;;;;;;;4.75;2.58;;;19.40;51.10;;;;;;5092308;28;20052;-70
2023/04/21 01:17:37;;;;;;;5.18;2.70;;;19.40;51.10;;;;;;5091507;28;20115;-70
2023/04/21 01:20:10;;;;;;;4.28;2.50;;;19.40;51.10;;;;;;5092012;28;20062;-70
2023/04/21 01:22:40;;;;;;;4.35;2.58;;;19.40;51.20;;;;;;5074577;28;20071;-69
2023/04/21 01:25:06;;;;;;;4.47;2.95;;;19.40;51.20;;;;;;5091969;28;20132;-70
2023/04/21 01:27:32;;;;;;;6.22;3.15;;;19.40;51.20;;;;;;5092284;28;20498;-70
2023/04/21 01:29:57;;;;;;;5.32;3.00;;;19.40;51.20;;;;;;5091075;28;20135;-70
2023/04/21 01:32:25;;;;;;;6.75;2.90;;;19.40;51.20;;;;;;5092527;28;20036;-70
2023/04/21 01:34:51;;;;;;;3.55;2.60;;;19.40;51.20;;;;;;5092030;28;20400;-70
2023/04/21 01:37:21;;;;;;;5.38;2.60;;;19.40;51.20;;;;;;5093554;28;20098;-70
2023/04/21 01:39:53;;;;;;;5.78;2.90;;;19.30;51.20;;;;;;5099377;28;20111;-70
2023/04/21 01:42:19;;;;;;;4.72;3.03;;;19.30;51.20;;;;;;5097343;28;20433;-69
2023/04/21 01:44:45;;;;;;;5.75;3.25;;;19.30;51.20;;;;;;5098181;28;20032;-70
2023/04/21 01:47:11;;;;;;;4.93;2.97;;;19.30;51.20;;;;;;5098847;28;20093;-70
2023/04/21 01:49:37;;;;;;;5.20;2.92;;;19.30;51.20;;;;;;5098898;28;20070;-70
2023/04/21 01:52:02;;;;;;;5.20;2.83;;;19.30;51.20;;;;;;5096325;28;20134;-70
2023/04/21 01:54:28;;;;;;;5.32;2.83;;;19.30;51.30;;;;;;5097438;28;20093;-70
2023/04/21 01:56:54;;;;;;;4.40;2.88;;;19.30;51.30;;;;;;5098889;28;20040;-69
2023/04/21 01:59:19;;;;;;;5.28;2.80;;;19.30;51.30;;;;;;5097773;28;20044;-70
2023/04/21 02:01:45;;;;;;;5.47;3.10;;;19.30;51.30;;;;;;5099109;28;20098;-70
2023/04/21 02:04:10;;;;;;;5.30;2.80;;;19.30;51.30;;;;;;5098316;28;20036;-69
2023/04/21 02:06:36;;;;;;;3.95;2.83;;;19.30;51.40;;;;;;5115578;28;20047;-70
2023/04/21 02:09:02;;;;;;;4.10;3.08;;;19.30;51.40;;;;;;5118151;28;20040;-70
2023/04/21 02:11:27;;;;;;;5.53;2.92;;;19.20;51.30;;;;;;5119015;28;20073;-70
2023/04/21 02:13:53;;;;;;;5.40;3.30;;;19.20;51.30;;;;;;5118118;27;20055;-70
2023/04/21 02:16:19;;;;;;;5.72;3.58;;;19.20;51.30;;;;;;5118643;28;20035;-70
2023/04/21 02:18:45;;;;;;;4.55;3.10;;;19.30;51.40;;;;;;5119215;27;20502;-70
2023/04/21 02:21:11;;;;;;;4.90;3.22;;;19.20;51.40;;;;;;5117429;27;20390;-69
2023/04/21 02:23:37;;;;;;;6.20;3.17;;;19.20;51.40;;;;;;5118622;27;20056;-69
2023/04/21 02:26:02;;;;;;;5.88;3.00;;;19.30;51.40;;;;;;5117640;28;20449;-69
2023/04/21 02:28:28;;;;;;;5.07;2.90;;;19.20;51.30;;;;;;5118953;28;20028;-69
2023/04/21 02:30:54;;;;;;;5.90;3.30;;;19.20;51.30;;;;;;5118732;28;20039;-69
2023/04/21 02:33:19;;;;;;;4.90;2.83;;;19.30;51.40;;;;;;5113222;28;20097;-69
2023/04/21 02:35:45;;;;;;;5.75;3.08;;;19.30;51.40;;;;;;5107969;28;20115;-69
2023/04/21 02:38:11;;;;;;;5.03;2.97;;;19.20;51.40;;;;;;5118321;27;20326;-69
2023/04/21 02:40:36;;;;;;;5.75;3.70;;;19.20;51.40;;;;;;5107883;28;20044;-69
2023/04/21 02:43:02;;;;;;;5.50;3.22;;;19.20;51.30;;;;;;5098114;28;20047;-69
2023/04/21 02:45:27;;;;;;;4.47;3.00;;;19.30;51.40;;;;;;5098582;28;20379;-69
2023/04/21 02:47:53;;;;;;;4.05;2.90;;;19.30;51.40;;;;;;5097661;28;20105;-69
2023/04/21 02:50:19;;;;;;;4.75;2.80;;;19.30;51.40;;;;;;5094047;28;20075;-69
2023/04/21 02:52:44;;;;;;;4.60;2.70;;;19.30;51.40;;;;;;5095189;28;20388;-69
2023/04/21 02:55:10;;;;;;;4.38;2.92;;;19.30;51.50;;;;;;5096637;28;20160;-69
2023/04/21 02:57:35;;;;;;;5.35;3.20;;;19.30;51.50;;;;;;5114321;28;20122;-69
2023/04/21 03:00:01;;;;;;;5.57;2.97;;;19.30;52.10;;;;;;5113802;28;20036;-69
2023/04/21 03:02:27;;;;;;;4.47;3.22;;;19.40;51.40;;;;;;5114519;28;20478;-69
2023/04/21 03:04:52;;;;;;;5.38;2.80;;;19.40;51.40;;;;;;5113939;28;20048;-69
2023/04/21 03:07:18;;;;;;;6.85;3.22;;;19.40;51.40;;;;;;5114999;28;20479;-69
2023/04/21 03:09:44;;;;;;;6.38;3.20;;;19.40;51.40;;;;;;5114720;28;20479;-69
2023/04/21 03:12:09;;;;;;;4.70;3.20;;;19.40;51.40;;;;;;5114868;28;20051;-70
2023/04/21 03:14:35;;;;;;;5.65;2.90;;;19.50;51.40;;;;;;5115292;28;20069;-70
2023/04/21 03:17:00;;;;;;;4.95;3.20;;;19.50;51.40;;;;;;5113816;28;20043;-70
2023/04/21 03:19:26;;;;;;;5.60;2.88;;;19.50;51.40;;;;;;5115206;28;20085;-70
2023/04/21 03:21:52;;;;;;;6.25;2.90;;;19.50;51.40;;;;;;5114618;28;20044;-70
2023/04/21 03:24:18;;;;;;;4.63;3.10;;;19.50;51.40;;;;;;5113732;28;20066;-70
2023/04/21 03:26:43;;;;;;;4.28;2.78;;;19.60;51.50;;;;;;5113133;28;20130;-70
2023/04/21 03:29:09;;;;;;;5.13;3.10;;;19.60;52.10;;;;;;5114263;28;20127;-70
2023/04/21 03:31:35;;;;;;;5.60;3.03;;;19.60;51.40;;;;;;5114133;28;20087;-69
2023/04/21 03:34:00;;;;;;;5.68;2.90;;;19.60;51.40;;;;;;5113581;28;20049;-70
2023/04/21 03:36:26;;;;;;;4.13;2.67;;;19.60;51.40;;;;;;5113534;28;20548;-70
2023/04/21 03:38:51;;;;;;;4.45;2.97;;;19.70;51.40;;;;;;5114701;28;20503;-70
2023/04/21 03:41:17;;;;;;;4.13;2.75;;;19.70;51.40;;;;;;5112457;28;20554;-70
2023/04/21 03:43:42;;;;;;;5.40;3.30;;;19.70;51.50;;;;;;5113718;28;20040;-70
2023/04/21 03:46:19;;;;;;;5.32;2.97;;;19.70;51.40;;;;;;5113839;28;20040;-70
2023/04/21 03:48:45;;;;;;;4.20;2.92;;;19.70;51.50;;;;;;5114229;27;20398;-70
2023/04/21 03:51:11;;;;;;;4.68;2.95;;;19.70;51.40;;;;;;5113012;28;20039;-70
2023/04/21 03:53:36;;;;;;;5.57;2.92;;;19.80;51.50;;;;;;5113504;28;20050;-71
2023/04/21 03:56:02;;;;;;;4.97;3.20;;;19.80;51.50;;;;;;5113939;28;20471;-70
2023/04/21 03:58:27;;;;;;;4.00;2.92;;;19.80;51.50;;;;;;5113424;28;20058;-71
2023/04/21 04:00:53;;;;;;;5.28;3.00;;;19.80;51.50;;;;;;5113759;28;20039;-70
2023/04/21 04:03:18;;;;;;;4.47;2.70;;;19.80;51.40;;;;;;5097436;28;20066;-71
2023/04/21 04:05:44;;;;;;;4.90;2.80;;;19.80;51.40;;;;;;5092181;28;20071;-71
2023/04/21 04:08:10;;;;;;;3.65;2.67;;;19.80;51.40;;;;;;5091520;28;20653;-71
2023/04/21 04:10:35;;;;;;;4.32;2.80;;;19.80;51.50;;;;;;5093325;28;20055;-72
2023/04/21 04:13:01;;;;;;;4.40;2.75;;;19.90;51.50;;;;;;5092753;28;20399;-71
2023/04/21 04:15:27;;;;;;;5.90;3.22;;;19.90;51.60;;;;;;5093801;28;20040;-71
2023/04/21 04:17:52;;;;;;;5.78;2.55;;;19.90;51.50;;;;;;5093566;28;20047;-71
2023/04/21 04:20:18;;;;;;;5.43;2.83;;;19.90;51.50;;;;;;5092611;28;20047;-71
2023/04/21 04:22:43;;;;;;;5.78;2.72;;;19.90;51.50;;;;;;5092792;28;20044;-71
2023/04/21 04:25:09;;;;;;;6.00;2.97;;;19.90;51.50;;;;;;5093091;28;20547;-71
2023/04/21 04:27:35;;;;;;;4.65;3.00;;;19.90;51.50;;;;;;5092830;28;20047;-71
2023/04/21 04:30:02;;;;;;;4.97;2.83;;;20.00;51.50;;;;;;5093154;28;20102;-71
2023/04/21 04:32:27;;;;;;;4.53;2.80;;;20.00;51.50;;;;;;5109724;28;20040;-71
2023/04/21 04:34:54;;;;;;;4.38;2.63;;;20.00;51.50;;;;;;5113142;28;20135;-71
2023/04/21 04:37:20;;;;;;;5.15;2.75;;;20.00;51.50;;;;;;5113127;28;20055;-71
2023/04/21 04:39:46;;;;;;;6.38;2.97;;;20.00;51.50;;;;;;5111274;28;20446;-72
2023/04/21 04:42:13;;;;;;;4.05;2.55;;;20.00;51.50;;;;;;5112858;28;20494;-72
2023/04/21 04:44:40;;;;;;;4.75;2.83;;;20.00;51.50;;;;;;5113668;28;20047;-72
2023/04/21 04:47:06;;;;;;;3.95;2.95;;;20.00;51.50;;;;;;5112141;28;20513;-71
2023/04/21 04:49:31;;;;;;;4.75;3.08;;;20.00;51.50;;;;;;5113521;28;20051;-72
2023/04/21 04:51:58;;;;;;;4.40;2.70;;;20.00;51.50;;;;;;5112366;28;20043;-71
2023/04/21 04:54:24;;;;;;;5.05;3.10;;;20.00;51.50;;;;;;5111150;28;20047;-71
2023/04/21 04:56:49;;;;;;;6.25;2.88;;;20.00;51.50;;;;;;5112505;28;20036;-72
2023/04/21 04:59:15;;;;;;;4.63;2.83;;;20.00;51.50;;;;;;5112569;28;20055;-72
2023/04/21 05:01:41;;;;;;;4.93;2.97;;;20.10;51.50;;;;;;5111932;28;20044;-72
2023/04/21 05:04:06;;;;;;;5.72;2.97;;;20.10;51.60;;;;;;5111426;28;20050;-72
2023/04/21 05:06:32;;;;;;;4.53;2.97;;;20.10;51.60;;;;;;5112850;28;20099;-72
2023/04/21 05:08:57;;;;;;;6.55;3.53;;;20.10;51.60;;;;;;5111938;28;20190;-73
2023/04/21 05:11:23;;;;;;;4.40;2.88;;;20.10;51.60;;;;;;5098336;28;20189;-73
2023/04/21 05:13:49;;;;;;;5.35;2.83;;;20.10;51.60;;;;;;5092241;28;20127;-73
2023/04/21 05:16:14;;;;;;;5.00;2.90;;;20.10;51.60;;;;;;5096347;28;20035;-73
2023/04/21 05:18:40;;;;;;;6.10;2.75;;;20.10;51.50;;;;;;5112920;28;20035;-73
2023/04/21 05:21:06;;;;;;;4.35;2.53;;;20.10;51.60;;;;;;5111662;28;20044;-73
2023/04/21 05:23:31;;;;;;;4.13;2.85;;;20.10;51.60;;;;;;5111773;28;20538;-73
2023/04/21 05:25:57;;;;;;;5.65;3.00;;;20.10;51.50;;;;;;5112369;28;20047;-73
2023/04/21 05:28:23;;;;;;;4.07;2.58;;;20.10;51.60;;;;;;5113013;28;20042;-73
2023/04/21 05:30:48;;;;;;;4.63;2.85;;;20.20;51.60;;;;;;5110901;28;20122;-73
2023/04/21 05:33:16;;;;;;;3.85;2.50;;;20.20;51.60;;;;;;5107527;28;20231;-74
2023/04/21 05:35:42;;;;;;;4.57;2.90;;;20.20;51.50;;;;;;5111315;28;20402;-74
2023/04/21 05:38:07;;;;;;;3.83;2.90;;;20.20;51.50;;;;;;5091616;28;20472;-73
2023/04/21 05:40:33;;;;;;;5.75;2.63;;;20.20;51.50;;;;;;5092579;28;20399;-74
2023/04/21 05:42:58;;;;;;;3.30;2.70;;;20.20;51.50;;;;;;5108204;28;20130;-74
2023/04/21 05:45:24;;;;;;;5.65;3.10;;;20.20;51.50;;;;;;5110974;28;20063;-74
2023/04/21 05:47:50;;;;;;;5.70;2.72;;;20.20;51.50;;;;;;5112515;28;20089;-74
2023/04/21 05:50:15;;;;;;;4.72;2.97;;;20.20;51.50;;;;;;5111363;28;20104;-74
2023/04/21 05:52:41;;;;;;;3.63;2.70;;;20.20;51.50;;;;;;5112310;28;20090;-74
2023/04/21 05:55:07;;;;;;;5.22;2.50;;;20.30;51.50;;;;;;5112158;28;20044;-75
2023/04/21 05:57:32;;;;;;;3.53;2.55;;;20.30;51.60;;;;;;5096496;28;20044;-75
2023/04/21 05:59:58;;;;;;;4.13;2.65;;;20.30;51.50;;;;;;5090488;28;20139;-75
2023/04/21 06:02:23;;;;;;;4.38;2.75;;;20.30;51.50;;;;;;5092373;28;20070;-75
2023/04/21 06:04:49;;;;;;;5.22;3.05;;;20.30;51.50;;;;;;5090310;28;20032;-76
2023/04/21 06:07:16;;;;;;;4.10;2.42;;;20.30;51.50;;;;;;5101023;28;20063;-75
2023/04/21 06:09:42;;;;;;;3.83;2.70;;;20.30;51.50;;;;;;5111197;28;20044;-74
2023/04/21 06:12:07;;;;;;;3.88;2.70;;;20.30;51.50;;;;;;5101651;28;20070;-76
2023/04/21 06:14:33;;;;;;;4.47;2.50;;;20.30;51.60;;;;;;5097146;28;20035;-76
2023/04/21 06:16:58;;;;;;;5.20;2.95;;;20.30;52.20;;;;;;5104137;28;20487;-73
2023/04/21 06:19:24;;;;;;;6.07;3.08;;;20.30;51.60;;;;;;5090997;28;20036;-77
2023/04/21 06:21:50;;;;;;;5.75;3.00;;;20.30;51.60;;;;;;5092140;28;20462;-77
2023/04/21 06:24:16;;;;;;;5.68;3.10;;;20.40;51.70;;;;;;5091195;28;20060;-75
2023/04/21 06:26:41;;;;;;;5.07;2.78;;;20.40;51.60;;;;;;5098617;28;20043;-76
2023/04/21 06:29:07;;;;;;;5.13;2.90;;;20.40;51.60;;;;;;5114364;28;20157;-77
2023/04/21 06:31:32;;;;;;;5.00;3.25;;;20.40;51.60;;;;;;5115577;28;20491;-78
2023/04/21 06:33:58;;;;;;;5.53;3.00;;;20.40;51.60;;;;;;5114706;28;20391;-77
2023/04/21 06:36:23;;;;;;;4.40;2.85;;;20.40;51.60;;;;;;5115931;28;20035;-78
2023/04/21 06:38:49;;;;;;;4.78;2.80;;;20.40;51.60;;;;;;5114651;28;20047;-70
2023/04/21 06:41:14;;;;;;;4.40;2.88;;;20.40;51.60;;;;;;5114279;28;20129;-77
2023/04/21 06:43:40;;;;;;;4.55;2.95;;;20.50;51.70;;;;;;5115754;28;20032;-77
2023/04/21 06:46:06;;;;;;;5.07;2.80;;;20.40;51.70;;;;;;5113852;28;20047;-76
2023/04/21 06:48:31;;;;;;;5.40;2.90;;;20.50;51.80;;;;;;5113922;28;20088;-71
2023/04/21 06:50:57;;;;;;;7.40;3.38;;;20.50;51.80;;;;;;5100530;28;20066;-78
2023/04/21 06:53:23;;;;;;;7.18;3.30;;;20.50;51.90;;;;;;5093091;28;20059;-78
2023/04/21 06:55:49;;;;;;;4.38;2.53;;;20.50;52.10;;;;;;5095015;28;20407;-75
2023/04/21 06:58:14;;;;;;;5.82;3.13;;;20.50;52.20;;;;;;5095020;28;20962;-76
2023/04/21 07:00:40;;;;;;;4.20;2.88;;;20.50;52.20;;;;;;5109054;28;20051;-76
2023/04/21 07:03:05;;;;;;;5.72;2.95;;;20.50;52.40;;;;;;5098830;28;20044;-75
2023/04/21 07:05:31;;;;;;;5.07;3.20;;;20.50;52.50;;;;;;5114491;28;20088;-75
2023/04/21 07:07:58;;;;;;;5.55;2.95;;;20.60;52.70;;;;;;5100937;28;20127;-76
2023/04/21 07:10:27;;;;;;;4.93;3.08;;;20.60;52.80;;;;;;5095157;28;20048;-75
2023/04/21 07:12:53;;;;;;;3.97;2.53;;;20.60;52.90;;;;;;5094933;28;20047;-78
2023/04/21 07:15:19;;;;;;;5.50;3.03;;;20.60;52.90;;;;;;5093877;28;20379;-72
2023/04/21 07:17:45;;;;;;;8.27;3.05;;;20.60;52.90;;;;;;5104573;28;20051;-77
2023/04/21 07:20:11;;;;;;;4.85;2.90;;;20.60;52.90;;;;;;5114922;28;20447;-75
2023/04/21 07:22:36;;;;;;;5.72;2.88;;;20.50;52.80;;;;;;5113724;28;20056;-69
2023/04/21 07:25:06;;;;;;;6.63;2.88;;;20.60;52.80;;;;;;5114560;28;20546;-70
2023/04/21 07:27:37;;;;;;;5.65;3.10;;;20.60;52.80;;;;;;5114928;28;20043;-74
2023/04/21 07:30:04;;;;;;;6.70;2.95;;;20.60;52.90;;;;;;5113440;28;20043;-75
2023/04/21 07:32:30;;;;;;;4.93;3.20;;;20.60;52.90;;;;;;5115849;28;20051;-76
2023/04/21 07:34:55;;;;;;;6.07;2.80;;;20.60;53.00;;;;;;5117017;27;20040;-78
2023/04/21 07:37:24;;;;;;;4.93;3.03;;;20.50;53.00;;;;;;5117131;27;20044;-82
2023/04/21 07:39:49;;;;;;;7.15;3.17;;;20.60;53.20;;;;;;5095033;28;20044;-78
2023/04/21 07:42:15;;;;;;;4.47;2.70;;;20.60;53.20;;;;;;5093025;28;20043;-75
2023/04/21 07:44:40;;;;;;;5.32;3.00;;;20.60;53.20;;;;;;5093679;28;20063;-73
2023/04/21 07:47:06;;;;;;;4.80;2.78;;;20.60;53.10;;;;;;5094209;28;20401;-72
2023/04/21 07:49:31;;;;;;;7.28;3.35;;;20.60;53.10;;;;;;5092430;28;20063;-70
2023/04/21 07:51:57;;;;;;;9.57;3.30;;;20.60;53.10;;;;;;5094261;28;20047;-71
2023/04/21 07:54:23;;;;;;;8.25;2.97;;;20.60;53.00;;;;;;5093960;28;20047;-70
2023/04/21 07:56:48;;;;;;;7.03;3.20;;;20.60;53.00;;;;;;5093835;28;20042;-70
2023/04/21 07:59:14;;;;;;;6.47;3.38;;;20.60;53.00;;;;;;5094023;28;20438;-69
2023/04/21 08:01:39;;;;;;;3.78;2.70;;;20.60;53.00;;;;;;5094365;28;20101;-69
2023/04/21 08:04:05;;;;;;;5.60;3.42;;;20.60;53.00;;;;;;5092782;28;20051;-69
2023/04/21 08:06:32;;;;;;;5.10;2.92;;;20.60;53.00;;;;;;5094095;28;20039;-68
2023/04/21 08:08:58;;;;;;;4.85;3.13;;;20.60;52.90;;;;;;5092048;28;20040;-68
2023/04/21 08:11:23;;;;;;;6.55;3.35;;;20.60;52.90;;;;;;5093161;28;20058;-68
2023/04/21 08:13:49;;;;;;;6.30;3.20;;;20.60;52.90;;;;;;5093622;28;20406;-67
2023/04/21 08:16:14;;;;;;;5.35;2.88;;;20.60;52.90;;;;;;5093283;28;20048;-68
2023/04/21 08:18:40;;;;;;;6.63;3.38;;;20.60;52.80;;;;;;5092836;28;20061;-68
2023/04/21 08:21:05;;;;;;;4.88;3.10;;;20.60;52.80;;;;;;5092115;28;20050;-67
2023/04/21 08:23:31;;;;;;;4.95;3.03;;;20.60;52.70;;;;;;5093226;28;20091;-67
2023/04/21 08:25:56;;;;;;;4.68;3.25;;;20.60;52.70;;;;;;5092659;28;20127;-67
2023/04/21 08:28:22;;;;;;;9.25;3.67;;;20.60;52.70;;;;;;5093327;28;20047;-68
2023/04/21 08:30:47;;;;;;;5.70;3.40;;;20.50;52.60;;;;;;5093561;28;20044;-69
2023/04/21 08:33:13;;;;;;;8.10;3.15;;;20.60;52.70;;;;;;5091438;28;20040;-67
2023/04/21 08:35:42;;;;;;;6.18;3.22;;;20.50;52.50;;;;;;5093487;28;20051;-68
2023/04/21 08:38:08;;;;;;;7.50;3.80;;;20.60;52.50;;;;;;5093322;28;20032;-67
2023/04/21 08:40:35;;;;;;;5.43;3.40;;;20.50;52.40;;;;;;5092744;28;20051;-68
2023/04/21 08:43:00;;;;;;;5.82;2.92;;;20.50;52.40;;;;;;5092217;28;20063;-67
2023/04/21 08:45:26;;;;;;;7.05;3.40;;;20.60;52.50;;;;;;5092045;28;20479;-67
2023/04/21 08:47:52;;;;;;;6.07;3.17;;;20.50;52.50;;;;;;5092002;28;20068;-67
2023/04/21 08:50:18;;;;;;;7.45;3.90;;;20.60;52.60;;;;;;5091961;28;20065;-67
2023/04/21 08:52:44;;;;;;;7.25;3.17;;;20.60;52.60;;;;;;5091313;28;20044;-67
2023/04/21 08:55:10;;;;;;;6.93;2.97;;;20.60;52.60;;;;;;5092993;28;20052;-68
2023/04/21 08:57:36;;;;;;;5.22;3.10;;;20.60;52.60;;;;;;5092325;28;20475;-67
2023/04/21 09:00:01;;;;;;;8.50;3.70;;;20.60;53.30;;;;;;5092313;28;20445;-67
2023/04/21 09:02:27;;;;;;;4.80;3.10;;;20.60;52.70;;;;;;5091950;28;20063;-67
2023/04/21 09:04:54;;;;;;;5.97;3.53;;;20.60;52.70;;;;;;5093336;28;20101;-70
2023/04/21 09:07:33;;;;;;;10.70;3.83;;;20.60;52.70;;;;;;5090950;28;20044;-67
2023/04/21 09:09:59;;;;;;;7.22;3.28;;;20.60;53.00;;;;;;5092624;28;20048;-70
2023/04/21 09:12:25;;;;;;;7.47;3.20;;;20.60;53.10;;;;;;5092865;28;20051;-68
2023/04/21 09:14:51;;;;;;;7.07;3.50;;;20.60;53.10;;;;;;5092313;28;20059;-68
2023/04/21 09:17:17;;;;;;;7.20;3.45;;;20.60;52.90;;;;;;5092606;28;20036;-68
2023/04/21 09:19:42;;;;;;;6.90;3.60;;;20.60;52.80;;;;;;5092911;28;20054;-67
2023/04/21 09:22:08;;;;;;;6.72;3.33;;;20.60;52.70;;;;;;5091917;28;20118;-67
2023/04/21 09:24:34;;;;;;;6.70;3.40;;;20.60;52.70;;;;;;5092664;28;20132;-67
2023/04/21 09:27:01;;;;;;;6.05;3.40;;;20.60;52.90;;;;;;5092470;28;20522;-68
2023/04/21 09:29:27;;;;;;;10.07;3.53;;;20.70;53.00;;;;;;5087791;28;20111;-67
2023/04/21 09:31:52;;;;;;;5.45;3.25;;;20.60;53.00;;;;;;5091984;28;20906;-66
2023/04/21 09:34:25;;;;;;;7.30;3.17;;;20.70;53.20;;;;;;5104625;28;20039;-66
2023/04/21 09:37:00;;;;;;;6.53;3.50;;;20.70;53.30;;;;;;5091169;28;20036;-66
2023/04/21 09:39:27;;;;;;;66.80;5.90;;;20.70;53.50;;;;;;5091380;28;20036;-68
2023/04/21 09:41:53;;;;;;;10.10;3.90;;;20.70;53.60;;;;;;5092268;28;20040;-68
2023/04/21 09:44:18;;;;;;;14.20;3.88;;;20.70;53.80;;;;;;5071982;28;20376;-64
2023/04/21 09:46:46;;;;;;;7.72;3.65;;;20.70;53.80;;;;;;5092642;28;20044;-64
2023/04/21 09:49:12;;;;;;;8.32;3.38;;;20.70;53.80;;;;;;5090416;28;20044;-65
2023/04/21 09:51:37;;;;;;;7.82;3.38;;;20.80;53.90;;;;;;5091434;28;20054;-62
2023/04/21 09:54:08;;;;;;;7.05;3.25;;;20.80;53.80;;;;;;5071786;28;20115;-62
2023/04/21 09:56:35;;;;;;;9.00;3.15;;;20.90;53.80;;;;;;5090207;28;20044;-64
2023/04/21 09:59:01;;;;;;;5.63;3.10;;;20.90;53.80;;;;;;5092754;28;20032;-62
2023/04/21 10:01:27;;;;;;;10.43;3.40;;;20.90;53.80;;;;;;5096022;28;20135;-63
2023/04/21 10:03:52;;;;;;;10.20;2.80;;;20.90;53.90;;;;;;5093303;28;20122;-61
2023/04/21 10:06:18;;;;;;;8.50;2.85;;;21.00;54.00;;;;;;5095029;28;20480;-63
2023/04/21 10:08:44;;;;;;;8.93;3.00;;;21.00;54.80;;;;;;5095655;28;20042;-63
2023/04/21 10:11:10;;;;;;;10.68;3.45;;;21.10;54.10;;;;;;5093591;28;20436;-64
2023/04/21 10:13:36;;;;;;;6.07;2.80;;;21.10;54.20;;;;;;5097108;28;20529;-64
2023/04/21 10:16:02;;;;;;;10.20;3.33;;;21.10;54.30;;;;;;5094163;28;20044;-63
2023/04/21 10:18:28;;;;;;;7.63;3.10;;;21.00;54.50;;;;;;5091772;28;20150;-63
2023/04/21 10:21:05;;;;;;;6.03;2.83;;;21.10;54.70;;;;;;5095313;28;20127;-62
2023/04/21 10:23:38;;;;;;;9.00;3.47;;;21.00;54.90;;;;;;5093740;28;20129;-63
2023/04/21 10:26:05;;;;;;;10.70;3.30;;;21.00;54.90;;;;;;5093567;28;20052;-62
2023/04/21 10:28:45;;;;;;;11.23;3.58;;;21.00;55.00;;;;;;5094577;28;20050;-62
2023/04/21 10:31:18;;;;;;;7.30;3.30;;;21.00;55.00;;;;;;5090497;28;20640;-63
2023/04/21 10:34:12;;;;;;;8.15;3.40;;;21.00;55.10;;;;;;5093049;28;20035;-63
2023/04/21 10:36:43;;;;;;;7.63;3.50;;;21.10;55.10;;;;;;5092920;28;20044;-63
2023/04/21 10:39:11;;;;;;;5.93;3.30;;;21.00;55.10;;;;;;5094262;28;20044;-64
2023/04/21 10:41:37;;;;;;;8.20;3.83;;;21.00;55.00;;;;;;5095655;28;20040;-64
2023/04/21 10:44:08;;;;;;;9.50;3.35;;;21.10;55.00;;;;;;5094961;28;20044;-64
2023/04/21 10:46:35;;;;;;;7.68;3.75;;;21.10;54.90;;;;;;5095186;28;20047;-64
2023/04/21 10:49:07;;;;;;;6.75;3.50;;;21.10;54.80;;;;;;5095327;28;20036;-64
2023/04/21 10:51:32;;;;;;;6.97;3.45;;;21.10;54.80;;;;;;5095632;28;20499;-64
2023/04/21 10:53:58;;;;;;;8.43;3.50;;;21.00;54.80;;;;;;5093030;28;20044;-65
2023/04/21 10:56:24;;;;;;;8.75;3.33;;;21.10;54.80;;;;;;5095558;28;20119;-64
2023/04/21 10:58:50;;;;;;;6.45;3.33;;;21.10;54.80;;;;;;5095681;28;20048;-64
2023/04/21 11:01:16;;;;;;;10.18;3.25;;;21.10;54.90;;;;;;5092785;28;20548;-64
2023/04/21 11:03:41;;;;;;;9.60;3.53;;;21.10;54.80;;;;;;5093803;28;20071;-64
2023/04/21 11:06:14;;;;;;;11.02;4.20;;;21.10;54.90;;;;;;5076555;28;20093;-64
2023/04/21 11:08:56;;;;;;;6.80;3.75;;;21.10;54.90;;;;;;5093875;28;20513;-64
2023/04/21 11:11:28;;;;;;;8.00;3.50;;;21.10;54.80;;;;;;5092765;28;20040;-64
2023/04/21 11:13:53;;;;;;;6.57;3.47;;;21.10;54.80;;;;;;5091956;28;20036;-64
2023/04/21 11:16:19;;;;;;;7.45;4.03;;;21.10;54.80;;;;;;5092998;28;20038;-64
2023/04/21 11:18:45;;;;;;;8.80;3.50;;;21.10;54.80;;;;;;5094535;28;20135;-64
2023/04/21 11:21:16;;;;;;;8.18;3.63;;;21.20;54.80;;;;;;5093801;28;20045;-63
2023/04/21 11:23:55;;;;;;;9.15;3.63;;;21.20;54.80;;;;;;5092915;28;20048;-64
2023/04/21 11:26:34;;;;;;;5.40;3.25;;;21.20;54.70;;;;;;5093553;28;20040;-64
2023/04/21 11:29:04;;;;;;;8.10;3.58;;;21.20;54.60;;;;;;5090202;28;20040;-63
2023/04/21 11:31:30;;;;;;;7.63;3.42;;;21.20;54.60;;;;;;5094603;28;20048;-62
2023/04/21 11:33:57;;;;;;;7.65;3.83;;;21.10;54.60;;;;;;5093648;28;20065;-63
2023/04/21 11:36:22;;;;;;;6.28;3.80;;;21.20;54.70;;;;;;5092181;28;20047;-63
2023/04/21 11:38:48;;;;;;;8.27;4.00;;;21.20;54.80;;;;;;5092574;28;20043;-63
2023/04/21 11:41:20;;;;;;;8.50;3.80;;;21.20;54.80;;;;;;5091533;28;20039;-63
2023/04/21 11:43:46;;;;;;;8.60;4.00;;;21.20;54.90;;;;;;5092476;28;20503;-63
2023/04/21 11:46:16;;;;;;;6.97;3.42;;;21.20;54.90;;;;;;5093598;28;20040;-65
2023/04/21 11:48:42;;;;;;;7.55;3.35;;;21.20;54.90;;;;;;5093161;28;20048;-64
2023/04/21 11:51:17;;;;;;;8.10;3.78;;;21.20;54.90;;;;;;5094063;28;20044;-64
2023/04/21 11:53:45;;;;;;;6.88;3.47;;;21.20;54.90;;;;;;5093930;28;20050;-64
2023/04/21 11:56:10;;;;;;;7.60;3.22;;;21.20;54.80;;;;;;5091904;28;20087;-64
2023/04/21 11:58:37;;;;;;;6.78;3.60;;;21.20;54.80;;;;;;5092715;28;20071;-64
2023/04/21 12:01:14;;;;;;;8.43;3.20;;;21.20;54.80;;;;;;5093373;28;20085;-66
2023/04/21 12:03:40;;;;;;;7.45;3.60;;;21.20;54.70;;;;;;5092747;28;20062;-66
2023/04/21 12:06:06;;;;;;;7.47;3.90;;;21.20;54.70;;;;;;5093033;28;20126;-65
2023/04/21 12:08:32;;;;;;;7.30;3.30;;;21.10;54.60;;;;;;5093178;28;20071;-66
2023/04/21 12:10:58;;;;;;;6.68;3.63;;;21.20;54.70;;;;;;5095204;28;20048;-67
2023/04/21 12:13:27;;;;;;;6.82;3.60;;;21.10;54.60;;;;;;5093230;28;20086;-66
2023/04/21 12:15:52;;;;;;;4.40;3.15;;;21.20;54.70;;;;;;5093429;28;20126;-65
2023/04/21 12:18:18;;;;;;;5.60;3.45;;;21.10;54.60;;;;;;5091940;28;20579;-65
2023/04/21 12:20:51;;;;;;;5.85;3.50;;;21.10;54.60;;;;;;5093321;28;20040;-64
2023/04/21 12:23:17;;;;;;;8.73;3.58;;;21.10;54.60;;;;;;5090907;28;20052;-64
2023/04/21 12:25:44;;;;;;;5.88;3.78;;;21.10;54.60;;;;;;5089929;28;20055;-64
2023/04/21 12:28:10;;;;;;;6.10;3.40;;;21.10;54.60;;;;;;5091660;28;20479;-64
2023/04/21 12:30:35;;;;;;;9.55;3.80;;;21.10;54.60;;;;;;5091516;28;20043;-64
2023/04/21 12:33:01;;;;;;;5.57;3.10;;;21.00;54.50;;;;;;5090483;28;20536;-65
2023/04/21 12:35:26;;;;;;;5.35;3.40;;;21.10;54.60;;;;;;5091448;28;20119;-70
2023/04/21 12:37:52;;;;;;;7.72;3.45;;;21.00;54.60;;;;;;5092170;28;20044;-65
2023/04/21 12:40:17;;;;;;;5.40;3.33;;;21.00;54.50;;;;;;5090946;28;20055;-66
2023/04/21 12:42:43;;;;;;;7.80;3.30;;;21.00;54.50;;;;;;5092159;28;20036;-62